createdAt,value
2023-03-06T00:00:52.455Z,982.12
2023-03-06T00:01:52.441Z,982.05
2023-03-06T00:02:52.409Z,982.05
2023-03-06T00:03:52.506Z,982.00
2023-03-06T00:04:52.394Z,982.02
2023-03-06T00:05:52.414Z,982.00
2023-03-06T00:06:52.394Z,982.03
2023-03-06T00:07:52.348Z,982.02
2023-03-06T00:08:53.342Z,981.99
2023-03-06T00:09:52.328Z,982.02
2023-03-06T00:10:52.345Z,982.00
2023-03-06T00:11:52.311Z,982.05
2023-03-06T00:12:52.332Z,982.03
2023-03-06T00:13:52.314Z,982.02
2023-03-06T00:14:52.293Z,982.02
2023-03-06T00:15:52.301Z,982.01
2023-03-06T00:16:52.293Z,981.98
2023-03-06T00:17:52.261Z,981.93
2023-03-06T00:18:52.315Z,981.94
2023-03-06T00:19:52.236Z,981.90
2023-03-06T00:20:52.234Z,981.91
2023-03-06T00:21:52.223Z,981.96
2023-03-06T00:22:52.198Z,981.93
2023-03-06T00:23:52.182Z,981.93
2023-03-06T00:24:52.182Z,981.90
2023-03-06T00:25:52.173Z,981.89
2023-03-06T00:26:52.172Z,981.88
2023-03-06T00:27:52.148Z,981.93
2023-03-06T00:28:52.151Z,981.90
2023-03-06T00:29:52.133Z,981.85
2023-03-06T00:30:52.165Z,981.81
2023-03-06T00:31:52.121Z,981.85
2023-03-06T00:32:52.132Z,981.80
2023-03-06T00:33:52.089Z,981.83
2023-03-06T00:34:52.101Z,981.84
2023-03-06T00:35:52.118Z,981.86
2023-03-06T00:36:52.078Z,981.84
2023-03-06T00:37:52.050Z,981.82
2023-03-06T00:38:52.081Z,981.84
2023-03-06T00:39:52.018Z,981.78
2023-03-06T00:40:52.032Z,981.77
2023-03-06T00:41:52.000Z,981.79
2023-03-06T00:42:52.019Z,981.72
2023-03-06T00:43:52.002Z,981.74
2023-03-06T00:44:52.011Z,981.64
2023-03-06T00:45:52.025Z,981.68
2023-03-06T00:46:51.973Z,981.67
2023-03-06T00:47:51.966Z,981.66
2023-03-06T00:48:51.945Z,981.65
2023-03-06T00:49:51.952Z,981.60
2023-03-06T00:50:51.923Z,981.60
2023-03-06T00:51:51.916Z,981.62
2023-03-06T00:52:51.917Z,981.60
2023-03-06T00:53:52.862Z,981.60
2023-03-06T00:54:51.880Z,981.62
2023-03-06T00:55:51.856Z,981.59
2023-03-06T00:56:51.869Z,981.61
2023-03-06T00:57:51.889Z,981.59
2023-03-06T00:58:51.858Z,981.56
2023-03-06T00:59:51.857Z,981.53
2023-03-06T01:00:51.833Z,981.53
2023-03-06T01:01:51.801Z,981.52
2023-03-06T01:02:51.822Z,981.52
2023-03-06T01:03:51.778Z,981.53
2023-03-06T01:04:51.788Z,981.51
2023-03-06T01:05:51.763Z,981.48
2023-03-06T01:06:51.788Z,981.50
2023-03-06T01:07:51.778Z,981.46
2023-03-06T01:08:51.796Z,981.42
2023-03-06T01:09:51.727Z,981.43
2023-03-06T01:10:51.732Z,981.46
2023-03-06T01:11:51.716Z,981.41
2023-03-06T01:12:51.709Z,981.44
2023-03-06T01:13:51.678Z,981.35
2023-03-06T01:14:51.727Z,981.37
2023-03-06T01:16:48.522Z,981.34
2023-03-06T01:17:49.428Z,981.34
2023-03-06T01:18:48.500Z,981.35
2023-03-06T01:19:49.414Z,981.34
2023-03-06T01:20:48.484Z,981.31
2023-03-06T01:21:48.434Z,981.29
2023-03-06T01:22:48.443Z,981.30
2023-03-06T01:23:48.450Z,981.24
2023-03-06T01:24:48.485Z,981.25
2023-03-06T01:25:48.402Z,981.25
2023-03-06T01:26:48.433Z,981.19
2023-03-06T01:27:48.388Z,981.18
2023-03-06T01:28:48.371Z,981.21
2023-03-06T01:29:48.370Z,981.18
2023-03-06T01:30:48.370Z,981.18
2023-03-06T01:31:48.358Z,981.20
2023-03-06T01:32:48.319Z,981.13
2023-03-06T01:33:48.304Z,981.19
2023-03-06T01:34:48.960Z,981.19
2023-03-06T01:35:48.341Z,981.14
2023-03-06T01:36:48.307Z,981.09
2023-03-06T01:37:48.274Z,981.10
2023-03-06T01:38:48.288Z,981.11
2023-03-06T01:39:48.255Z,981.08
2023-03-06T01:40:48.266Z,981.04
2023-03-06T01:41:48.435Z,981.05
2023-03-06T01:42:48.264Z,981.05
2023-03-06T01:43:48.208Z,981.04
2023-03-06T01:44:48.215Z,981.04
2023-03-06T01:45:49.893Z,981.05
2023-03-06T01:46:48.207Z,981.01
2023-03-06T01:47:48.166Z,980.99
2023-03-06T01:48:48.208Z,980.97
2023-03-06T01:49:48.145Z,980.95
2023-03-06T01:50:48.197Z,981.04
2023-03-06T01:51:48.146Z,980.96
2023-03-06T01:52:48.145Z,980.97
2023-03-06T01:53:48.109Z,980.98
2023-03-06T01:54:48.108Z,980.93
2023-03-06T01:55:48.099Z,980.93
2023-03-06T01:56:48.189Z,980.93
2023-03-06T01:57:48.098Z,980.93
2023-03-06T01:58:48.059Z,980.88
2023-03-06T01:59:48.062Z,980.87
2023-03-06T02:00:48.047Z,980.80
2023-03-06T02:01:48.053Z,980.76
2023-03-06T02:02:48.029Z,980.73
2023-03-06T02:03:48.027Z,980.74
2023-03-06T02:04:47.997Z,980.74
2023-03-06T02:05:47.998Z,980.76
2023-03-06T02:06:47.967Z,980.73
2023-03-06T02:07:49.701Z,980.73
2023-03-06T02:08:47.972Z,980.71
2023-03-06T02:09:47.960Z,980.73
2023-03-06T02:10:47.951Z,980.67
2023-03-06T02:11:48.046Z,980.67
2023-03-06T02:12:47.942Z,980.61
2023-03-06T02:13:47.956Z,980.60
2023-03-06T02:14:47.916Z,980.58
2023-03-06T02:15:47.911Z,980.59
2023-03-06T02:16:47.899Z,980.57
2023-03-06T02:17:47.917Z,980.55
2023-03-06T02:18:47.868Z,980.57
2023-03-06T02:19:47.890Z,980.56
2023-03-06T02:20:47.839Z,980.52
2023-03-06T02:21:47.843Z,980.48
2023-03-06T02:22:47.799Z,980.50
2023-03-06T02:23:47.823Z,980.47
2023-03-06T02:24:47.808Z,980.47
2023-03-06T02:25:47.812Z,980.43
2023-03-06T02:26:47.839Z,980.46
2023-03-06T02:27:47.789Z,980.40
2023-03-06T02:28:47.765Z,980.37
2023-03-06T02:29:47.797Z,980.37
2023-03-06T02:30:47.751Z,980.33
2023-03-06T02:31:47.759Z,980.36
2023-03-06T02:32:47.712Z,980.33
2023-03-06T02:33:47.722Z,980.26
2023-03-06T02:34:47.692Z,980.34
2023-03-06T02:35:47.790Z,980.29
2023-03-06T02:36:47.842Z,980.28
2023-03-06T02:37:47.672Z,980.27
2023-03-06T02:38:47.672Z,980.31
2023-03-06T02:39:47.663Z,980.33
2023-03-06T02:40:47.634Z,980.33
2023-03-06T02:41:47.691Z,980.33
2023-03-06T02:42:47.629Z,980.32
2023-03-06T02:43:47.668Z,980.27
2023-03-06T02:44:47.608Z,980.33
2023-03-06T02:45:47.685Z,980.33
2023-03-06T02:46:47.590Z,980.29
2023-03-06T02:47:47.589Z,980.26
2023-03-06T02:48:47.547Z,980.25
2023-03-06T02:49:47.538Z,980.22
2023-03-06T02:50:47.518Z,980.23
2023-03-06T02:51:47.533Z,980.27
2023-03-06T02:52:47.529Z,980.24
2023-03-06T02:53:47.508Z,980.23
2023-03-06T02:54:47.478Z,980.23
2023-03-06T02:55:47.489Z,980.22
2023-03-06T02:56:47.463Z,980.24
2023-03-06T02:57:47.457Z,980.21
2023-03-06T02:58:47.465Z,980.21
2023-03-06T02:59:47.464Z,980.24
2023-03-06T03:00:47.417Z,980.18
2023-03-06T03:01:47.447Z,980.18
2023-03-06T03:02:47.418Z,980.19
2023-03-06T03:03:47.420Z,980.18
2023-03-06T03:04:47.481Z,980.15
2023-03-06T03:05:47.397Z,980.17
2023-03-06T03:06:47.456Z,980.19
2023-03-06T03:07:47.368Z,980.11
2023-03-06T03:08:47.367Z,980.12
2023-03-06T03:09:47.366Z,980.13
2023-03-06T03:10:47.327Z,980.12
2023-03-06T03:11:47.325Z,980.15
2023-03-06T03:12:47.289Z,980.06
2023-03-06T03:13:47.315Z,980.09
2023-03-06T03:14:47.294Z,980.11
2023-03-06T03:15:47.322Z,980.10
2023-03-06T03:16:47.255Z,980.06
2023-03-06T03:17:47.275Z,980.05
2023-03-06T03:18:47.233Z,980.04
2023-03-06T03:19:47.238Z,980.06
2023-03-06T03:20:47.249Z,980.05
2023-03-06T03:21:47.233Z,980.08
2023-03-06T03:22:47.209Z,980.05
2023-03-06T03:23:47.208Z,980.03
2023-03-06T03:24:47.267Z,980.01
2023-03-06T03:25:47.209Z,979.97
2023-03-06T03:26:47.160Z,979.96
2023-03-06T03:27:47.149Z,979.99
2023-03-06T03:28:47.147Z,979.96
2023-03-06T03:29:47.139Z,979.99
2023-03-06T03:30:47.172Z,979.95
2023-03-06T03:31:47.130Z,979.92
2023-03-06T03:32:47.103Z,979.90
2023-03-06T03:33:47.094Z,979.90
2023-03-06T03:34:47.099Z,979.92
2023-03-06T03:35:47.101Z,979.93
2023-03-06T03:36:47.070Z,979.89
2023-03-06T03:37:47.073Z,979.94
2023-03-06T03:38:47.073Z,979.92
2023-03-06T03:39:47.063Z,979.98
2023-03-06T03:40:47.039Z,979.93
2023-03-06T03:41:47.042Z,979.95
2023-03-06T03:42:47.020Z,979.92
2023-03-06T03:43:47.006Z,979.96
2023-03-06T03:44:46.990Z,979.93
2023-03-06T03:45:46.982Z,979.92
2023-03-06T03:46:47.058Z,979.95
2023-03-06T03:47:46.990Z,979.93
2023-03-06T03:48:46.951Z,979.89
2023-03-06T03:49:46.942Z,979.87
2023-03-06T03:50:46.922Z,979.86
2023-03-06T03:51:46.941Z,979.87
2023-03-06T03:52:46.892Z,979.86
2023-03-06T03:53:46.926Z,979.82
2023-03-06T03:54:46.883Z,979.85
2023-03-06T03:55:46.918Z,979.83
2023-03-06T03:56:46.866Z,979.81
2023-03-06T03:57:46.882Z,979.80
2023-03-06T03:58:46.855Z,979.78
2023-03-06T03:59:46.830Z,979.76
2023-03-06T04:00:47.759Z,979.83
2023-03-06T04:01:46.914Z,979.75
2023-03-06T04:02:46.799Z,979.78
2023-03-06T04:03:46.810Z,979.76
2023-03-06T04:04:46.858Z,979.77
2023-03-06T04:05:46.782Z,979.77
2023-03-06T04:06:46.755Z,979.74
2023-03-06T04:07:46.771Z,979.73
2023-03-06T04:08:46.728Z,979.73
2023-03-06T04:09:46.728Z,979.71
2023-03-06T04:10:46.726Z,979.70
2023-03-06T04:11:46.726Z,979.73
2023-03-06T04:12:46.687Z,979.71
2023-03-06T04:13:46.707Z,979.70
2023-03-06T04:14:46.679Z,979.65
2023-03-06T04:15:46.669Z,979.67
2023-03-06T04:16:46.660Z,979.63
2023-03-06T04:17:46.709Z,979.65
2023-03-06T04:18:46.629Z,979.64
2023-03-06T04:19:46.650Z,979.63
2023-03-06T04:20:46.619Z,979.67
2023-03-06T04:21:46.620Z,979.59
2023-03-06T04:22:47.597Z,979.62
2023-03-06T04:23:46.619Z,979.56
2023-03-06T04:24:46.588Z,979.54
2023-03-06T04:25:46.610Z,979.58
2023-03-06T04:26:47.537Z,979.57
2023-03-06T04:27:46.546Z,979.57
2023-03-06T04:28:46.553Z,979.58
2023-03-06T04:29:46.543Z,979.61
2023-03-06T04:30:46.530Z,979.52
2023-03-06T04:31:46.621Z,979.52
2023-03-06T04:32:46.497Z,979.50
2023-03-06T04:33:46.521Z,979.49
2023-03-06T04:34:46.493Z,979.45
2023-03-06T04:35:46.510Z,979.44
2023-03-06T04:36:46.467Z,979.45
2023-03-06T04:37:47.132Z,979.40
2023-03-06T04:38:46.484Z,979.45
2023-03-06T04:39:46.422Z,979.45
2023-03-06T04:40:46.433Z,979.40
2023-03-06T04:41:46.437Z,979.43
2023-03-06T04:42:46.390Z,979.42
2023-03-06T04:43:46.411Z,979.39
2023-03-06T04:44:46.388Z,979.36
2023-03-06T04:45:46.493Z,979.36
2023-03-06T04:46:46.396Z,979.36
2023-03-06T04:47:46.373Z,979.37
2023-03-06T04:48:46.333Z,979.36
2023-03-06T04:49:46.357Z,979.37
2023-03-06T04:50:46.329Z,979.31
2023-03-06T04:51:46.324Z,979.29
2023-03-06T04:52:46.320Z,979.22
2023-03-06T04:53:46.294Z,979.26
2023-03-06T04:54:46.298Z,979.27
2023-03-06T04:55:46.285Z,979.24
2023-03-06T04:56:46.243Z,979.19
2023-03-06T04:57:46.266Z,979.17
2023-03-06T04:58:46.260Z,979.25
2023-03-06T04:59:46.243Z,979.21
2023-03-06T05:00:46.221Z,979.20
2023-03-06T05:01:46.213Z,979.19
2023-03-06T05:02:46.206Z,979.15
2023-03-06T05:03:46.207Z,979.13
2023-03-06T05:04:46.223Z,979.18
2023-03-06T05:05:46.881Z,979.14
2023-03-06T05:06:46.150Z,979.12
2023-03-06T05:07:46.168Z,979.13
2023-03-06T05:08:46.149Z,979.14
2023-03-06T05:09:46.146Z,979.13
2023-03-06T05:10:46.149Z,979.15
2023-03-06T05:11:46.153Z,979.11
2023-03-06T05:12:46.122Z,979.09
2023-03-06T05:13:46.090Z,979.12
2023-03-06T05:14:47.980Z,979.15
2023-03-06T05:15:46.100Z,979.14
2023-03-06T05:16:46.086Z,979.14
2023-03-06T05:17:46.066Z,979.13
2023-03-06T05:18:46.020Z,979.14
2023-03-06T05:19:46.035Z,979.14
2023-03-06T05:20:46.030Z,979.14
2023-03-06T05:21:46.028Z,979.13
2023-03-06T05:22:46.025Z,979.10
2023-03-06T05:23:45.992Z,979.11
2023-03-06T05:24:45.957Z,979.10
2023-03-06T05:25:46.021Z,979.07
2023-03-06T05:26:45.961Z,979.09
2023-03-06T05:27:45.961Z,979.04
2023-03-06T05:28:45.941Z,979.10
2023-03-06T05:29:45.929Z,979.04
2023-03-06T05:30:45.902Z,979.05
2023-03-06T05:31:46.210Z,979.04
2023-03-06T05:32:45.899Z,979.05
2023-03-06T05:33:45.898Z,979.08
2023-03-06T05:34:45.870Z,979.07
2023-03-06T05:35:45.918Z,979.01
2023-03-06T05:36:45.849Z,979.02
2023-03-06T05:37:45.841Z,979.02
2023-03-06T05:38:45.820Z,979.02
2023-03-06T05:39:45.839Z,979.00
2023-03-06T05:40:45.802Z,979.00
2023-03-06T05:41:45.836Z,979.01
2023-03-06T05:42:45.784Z,979.02
2023-03-06T05:43:45.793Z,979.05
2023-03-06T05:44:45.794Z,979.01
2023-03-06T05:45:45.786Z,978.98
2023-03-06T05:46:45.755Z,979.01
2023-03-06T05:47:45.785Z,979.00
2023-03-06T05:48:46.927Z,978.99
2023-03-06T05:49:45.736Z,979.01
2023-03-06T05:50:45.707Z,978.99
2023-03-06T05:51:45.716Z,978.97
2023-03-06T05:52:45.694Z,978.96
2023-03-06T05:53:45.704Z,978.98
2023-03-06T05:54:45.663Z,978.97
2023-03-06T05:55:45.663Z,978.99
2023-03-06T05:56:45.646Z,978.98
2023-03-06T05:57:45.652Z,978.97
2023-03-06T05:58:45.635Z,979.00
2023-03-06T05:59:46.456Z,979.02
2023-03-06T06:00:45.612Z,978.97
2023-03-06T06:01:45.577Z,979.01
2023-03-06T06:02:45.658Z,978.96
2023-03-06T06:03:45.588Z,978.93
2023-03-06T06:04:45.573Z,978.95
2023-03-06T06:05:45.572Z,979.00
2023-03-06T06:06:45.905Z,978.97
2023-03-06T06:07:45.542Z,979.00
2023-03-06T06:08:45.520Z,978.99
2023-03-06T06:09:45.575Z,978.97
2023-03-06T06:10:45.521Z,978.96
2023-03-06T06:11:45.512Z,978.99
2023-03-06T06:12:45.502Z,978.96
2023-03-06T06:13:45.471Z,979.02
2023-03-06T06:14:45.522Z,979.06
2023-03-06T06:15:47.277Z,979.01
2023-03-06T06:17:42.249Z,979.05
2023-03-06T06:18:42.227Z,979.02
2023-03-06T06:19:42.179Z,979.01
2023-03-06T06:20:42.171Z,978.99
2023-03-06T06:21:42.221Z,979.00
2023-03-06T06:22:42.170Z,979.00
2023-03-06T06:23:42.181Z,978.97
2023-03-06T06:24:42.158Z,979.00
2023-03-06T06:25:42.449Z,979.00
2023-03-06T06:26:42.248Z,979.00
2023-03-06T06:27:42.161Z,979.08
2023-03-06T06:28:42.120Z,979.04
2023-03-06T06:29:42.141Z,979.03
2023-03-06T06:30:42.146Z,979.03
2023-03-06T06:31:42.098Z,979.02
2023-03-06T06:32:42.088Z,979.02
2023-03-06T06:33:42.080Z,979.04
2023-03-06T06:34:42.051Z,979.01
2023-03-06T06:35:42.072Z,979.03
2023-03-06T06:36:42.441Z,979.01
2023-03-06T06:37:42.042Z,979.03
2023-03-06T06:38:42.029Z,979.05
2023-03-06T06:39:42.013Z,979.05
2023-03-06T06:40:41.999Z,979.01
2023-03-06T06:41:59.461Z,979.03
2023-03-06T06:42:43.008Z,979.05
2023-03-06T06:43:41.996Z,979.07
2023-03-06T06:44:41.967Z,979.05
2023-03-06T06:45:41.939Z,978.99
2023-03-06T06:47:43.570Z,979.02
2023-03-06T06:48:41.924Z,979.00
2023-03-06T06:49:41.892Z,979.02
2023-03-06T06:50:41.900Z,979.08
2023-03-06T06:51:41.841Z,979.02
2023-03-06T06:52:41.880Z,979.03
2023-03-06T06:53:41.894Z,979.04
2023-03-06T06:54:41.835Z,979.02
2023-03-06T06:55:41.780Z,979.04
2023-03-06T06:56:41.889Z,978.98
2023-03-06T06:57:41.789Z,979.03
2023-03-06T06:58:41.778Z,978.99
2023-03-06T06:59:41.970Z,978.97
2023-03-06T07:00:41.749Z,978.98
2023-03-06T07:01:41.759Z,979.00
2023-03-06T07:02:41.758Z,978.97
2023-03-06T07:03:41.743Z,979.00
2023-03-06T07:04:56.185Z,978.98
2023-03-06T07:05:42.732Z,979.01
2023-03-06T07:06:41.723Z,978.98
2023-03-06T07:07:41.685Z,979.03
2023-03-06T07:08:41.676Z,978.98
2023-03-06T07:09:41.656Z,978.98
2023-03-06T07:10:41.673Z,978.95
2023-03-06T07:11:41.692Z,978.97
2023-03-06T07:12:41.630Z,978.95
2023-03-06T07:13:41.600Z,978.99
2023-03-06T07:14:41.602Z,978.98
2023-03-06T07:15:41.604Z,979.01
2023-03-06T07:16:41.960Z,978.95
2023-03-06T07:17:41.574Z,978.98
2023-03-06T07:18:41.581Z,978.99
2023-03-06T07:19:41.562Z,978.95
2023-03-06T07:20:41.556Z,978.99
2023-03-06T07:21:41.550Z,978.98
2023-03-06T07:22:50.720Z,978.96
2023-03-06T07:23:42.502Z,978.96
2023-03-06T07:24:41.522Z,978.96
2023-03-06T07:25:41.493Z,978.96
2023-03-06T07:26:41.547Z,978.99
2023-03-06T07:27:41.507Z,978.98
2023-03-06T07:28:52.117Z,978.97
2023-03-06T07:29:42.432Z,978.95
2023-03-06T07:30:41.478Z,978.97
2023-03-06T07:31:41.433Z,978.99
2023-03-06T07:32:41.548Z,978.96
2023-03-06T07:33:41.423Z,979.02
2023-03-06T07:34:41.412Z,979.03
2023-03-06T07:35:41.449Z,978.99
2023-03-06T07:36:41.388Z,978.99
2023-03-06T07:37:41.385Z,978.98
2023-03-06T07:38:41.410Z,979.00
2023-03-06T07:39:41.345Z,979.03
2023-03-06T07:40:41.342Z,979.07
2023-03-06T07:41:41.317Z,979.01
2023-03-06T07:42:41.332Z,979.04
2023-03-06T07:43:41.508Z,979.10
2023-03-06T07:44:41.344Z,979.05
2023-03-06T07:45:41.340Z,979.05
2023-03-06T07:46:41.379Z,979.06
2023-03-06T07:47:41.283Z,979.06
2023-03-06T07:48:42.238Z,979.03
2023-03-06T07:49:41.311Z,979.06
2023-03-06T07:50:41.301Z,979.05
2023-03-06T07:51:41.230Z,979.04
2023-03-06T07:52:41.261Z,979.03
2023-03-06T07:53:41.232Z,979.06
2023-03-06T07:54:41.483Z,979.03
2023-03-06T07:55:41.178Z,979.05
2023-03-06T07:56:41.197Z,979.04
2023-03-06T07:57:41.179Z,979.05
2023-03-06T07:58:41.191Z,979.10
2023-03-06T07:59:41.180Z,979.08
2023-03-06T08:00:41.186Z,979.11
2023-03-06T08:01:41.203Z,979.13
2023-03-06T08:02:41.158Z,979.08
2023-03-06T08:03:41.135Z,979.08
2023-03-06T08:04:41.119Z,979.12
2023-03-06T08:05:41.088Z,979.09
2023-03-06T08:06:41.145Z,979.10
2023-03-06T08:07:41.137Z,979.13
2023-03-06T08:08:41.077Z,979.08
2023-03-06T08:09:41.061Z,979.10
2023-03-06T08:10:41.033Z,979.10
2023-03-06T08:11:41.019Z,979.08
2023-03-06T08:12:41.009Z,979.11
2023-03-06T08:13:41.009Z,979.11
2023-03-06T08:14:40.997Z,979.11
2023-03-06T08:15:40.966Z,979.14
2023-03-06T08:16:41.081Z,979.13
2023-03-06T08:17:40.950Z,979.17
2023-03-06T08:18:40.975Z,979.14
2023-03-06T08:19:40.956Z,979.14
2023-03-06T08:20:40.946Z,979.17
2023-03-06T08:21:40.929Z,979.18
2023-03-06T08:22:40.919Z,979.20
2023-03-06T08:23:40.884Z,979.15
2023-03-06T08:24:40.942Z,979.14
2023-03-06T08:25:40.862Z,979.14
2023-03-06T08:26:40.953Z,979.20
2023-03-06T08:27:40.853Z,979.18
2023-03-06T08:28:40.868Z,979.18
2023-03-06T08:29:40.824Z,979.22
2023-03-06T08:30:40.858Z,979.19
2023-03-06T08:31:40.874Z,979.19
2023-03-06T08:32:40.938Z,979.25
2023-03-06T08:33:40.994Z,979.21
2023-03-06T08:34:40.798Z,979.20
2023-03-06T08:35:40.826Z,979.25
2023-03-06T08:36:40.795Z,979.25
2023-03-06T08:37:40.849Z,979.21
2023-03-06T08:38:40.774Z,979.18
2023-03-06T08:39:40.722Z,979.21
2023-03-06T08:40:40.725Z,979.16
2023-03-06T08:41:40.723Z,979.19
2023-03-06T08:42:40.763Z,979.20
2023-03-06T08:43:41.016Z,979.20
2023-03-06T08:44:40.690Z,979.22
2023-03-06T08:45:40.723Z,979.17
2023-03-06T08:46:40.671Z,979.18
2023-03-06T08:47:40.623Z,979.19
2023-03-06T08:48:40.632Z,979.20
2023-03-06T08:49:40.637Z,979.20
2023-03-06T08:50:40.610Z,979.15
2023-03-06T08:51:40.582Z,979.20
2023-03-06T08:52:40.602Z,979.14
2023-03-06T08:53:43.533Z,979.14
2023-03-06T08:54:40.592Z,979.16
2023-03-06T08:55:40.588Z,979.13
2023-03-06T08:56:40.626Z,979.13
2023-03-06T08:57:40.528Z,979.15
2023-03-06T08:58:40.561Z,979.15
2023-03-06T08:59:40.524Z,979.11
2023-03-06T09:00:40.544Z,979.09
2023-03-06T09:01:40.530Z,979.12
2023-03-06T09:02:40.531Z,979.08
2023-03-06T09:03:40.460Z,979.08
2023-03-06T09:04:40.482Z,979.11
2023-03-06T09:05:40.541Z,979.10
2023-03-06T09:06:40.480Z,979.10
2023-03-06T09:07:40.420Z,979.10
2023-03-06T09:08:40.440Z,979.10
2023-03-06T09:09:40.391Z,979.13
2023-03-06T09:10:40.452Z,979.10
2023-03-06T09:11:40.446Z,979.11
2023-03-06T09:12:49.929Z,979.11
2023-03-06T09:13:41.354Z,979.15
2023-03-06T09:14:40.374Z,979.09
2023-03-06T09:15:40.375Z,979.19
2023-03-06T09:16:40.385Z,979.09
2023-03-06T09:17:40.369Z,979.09
2023-03-06T09:18:40.331Z,979.08
2023-03-06T09:19:40.342Z,979.09
2023-03-06T09:20:40.314Z,979.09
2023-03-06T09:21:40.313Z,979.11
2023-03-06T09:22:40.276Z,979.10
2023-03-06T09:23:40.253Z,979.11
2023-03-06T09:24:40.300Z,979.08
2023-03-06T09:25:40.241Z,979.12
2023-03-06T09:26:46.289Z,979.08
2023-03-06T09:27:42.960Z,979.13
2023-03-06T09:28:40.267Z,979.14
2023-03-06T09:29:40.218Z,979.13
2023-03-06T09:30:40.257Z,979.15
2023-03-06T09:31:40.258Z,979.17
2023-03-06T09:32:40.225Z,979.17
2023-03-06T09:33:40.183Z,979.22
2023-03-06T09:34:40.164Z,979.21
2023-03-06T09:35:40.836Z,979.26
2023-03-06T09:36:54.975Z,979.24
2023-03-06T09:37:41.125Z,979.24
2023-03-06T09:38:40.148Z,979.24
2023-03-06T09:39:40.079Z,979.26
2023-03-06T09:40:40.134Z,979.30
2023-03-06T09:41:40.534Z,979.27
2023-03-06T09:42:40.068Z,979.26
2023-03-06T09:43:40.062Z,979.30
2023-03-06T09:44:40.059Z,979.27
2023-03-06T09:45:40.107Z,979.29
2023-03-06T09:46:40.048Z,979.26
2023-03-06T09:47:40.027Z,979.29
2023-03-06T09:48:40.035Z,979.34
2023-03-06T09:49:39.989Z,979.33
2023-03-06T09:50:40.954Z,979.33
2023-03-06T09:51:39.983Z,979.32
2023-03-06T09:52:39.976Z,979.31
2023-03-06T09:53:39.995Z,979.33
2023-03-06T09:54:39.962Z,979.32
2023-03-06T09:55:39.957Z,979.29
2023-03-06T09:56:40.016Z,979.30
2023-03-06T09:57:39.909Z,979.35
2023-03-06T09:58:39.925Z,979.39
2023-03-06T09:59:39.864Z,979.36
2023-03-06T10:00:39.912Z,979.34
2023-03-06T10:01:39.908Z,979.37
2023-03-06T10:02:39.957Z,979.34
2023-03-06T10:03:39.826Z,979.38
2023-03-06T10:04:39.884Z,979.38
2023-03-06T10:05:39.814Z,979.40
2023-03-06T10:06:39.832Z,979.38
2023-03-06T10:07:39.801Z,979.42
2023-03-06T10:08:39.810Z,979.40
2023-03-06T10:09:39.808Z,979.41
2023-03-06T10:10:39.787Z,979.39
2023-03-06T10:11:39.773Z,979.39
2023-03-06T10:12:39.765Z,979.40
2023-03-06T10:13:39.886Z,979.45
2023-03-06T10:14:39.744Z,979.44
2023-03-06T10:15:39.748Z,979.40
2023-03-06T10:16:39.945Z,979.39
2023-03-06T10:17:40.644Z,979.41
2023-03-06T10:18:39.715Z,979.41
2023-03-06T10:19:39.662Z,979.39
2023-03-06T10:20:39.684Z,979.38
2023-03-06T10:21:39.675Z,979.49
2023-03-06T10:22:40.335Z,979.38
2023-03-06T10:23:39.641Z,979.35
2023-03-06T10:24:39.640Z,979.34
2023-03-06T10:25:39.624Z,979.31
2023-03-06T10:26:39.779Z,979.30
2023-03-06T10:27:39.668Z,979.32
2023-03-06T10:28:39.602Z,979.33
2023-03-06T10:29:40.177Z,979.32
2023-03-06T10:30:39.574Z,979.32
2023-03-06T10:31:39.537Z,979.28
2023-03-06T10:32:48.380Z,979.33
2023-03-06T10:33:41.019Z,979.32
2023-03-06T10:34:39.530Z,979.30
2023-03-06T10:35:39.553Z,979.30
2023-03-06T10:36:39.508Z,979.29
2023-03-06T10:37:39.479Z,979.35
2023-03-06T10:38:39.514Z,979.33
2023-03-06T10:39:39.501Z,979.26
2023-03-06T10:40:39.554Z,979.28
2023-03-06T10:41:39.501Z,979.27
2023-03-06T10:42:39.483Z,979.28
2023-03-06T10:43:39.444Z,979.25
2023-03-06T10:44:39.442Z,979.29
2023-03-06T10:45:48.919Z,979.31
2023-03-06T10:46:40.540Z,979.32
2023-03-06T10:47:39.369Z,979.28
2023-03-06T10:48:41.721Z,979.32
2023-03-06T10:49:39.403Z,979.29
2023-03-06T10:50:39.369Z,979.28
2023-03-06T10:51:39.357Z,979.31
2023-03-06T10:52:39.334Z,979.28
2023-03-06T10:53:39.361Z,979.30
2023-03-06T10:54:39.308Z,979.26
2023-03-06T10:55:39.354Z,979.26
2023-03-06T10:56:39.314Z,979.25
2023-03-06T10:57:39.326Z,979.26
2023-03-06T10:58:39.272Z,979.24
2023-03-06T10:59:39.299Z,979.29
2023-03-06T11:00:39.250Z,979.25
2023-03-06T11:01:39.378Z,979.28
2023-03-06T11:02:39.294Z,979.27
2023-03-06T11:03:39.222Z,979.23
2023-03-06T11:04:39.277Z,979.25
2023-03-06T11:05:39.201Z,979.26
2023-03-06T11:06:39.185Z,979.26
2023-03-06T11:07:39.461Z,979.19
2023-03-06T11:08:39.206Z,979.18
2023-03-06T11:09:39.149Z,979.21
2023-03-06T11:10:39.137Z,979.18
2023-03-06T11:11:39.151Z,979.20
2023-03-06T11:12:39.129Z,979.21
2023-03-06T11:13:39.157Z,979.20
2023-03-06T11:14:39.105Z,979.23
2023-03-06T11:15:39.112Z,979.21
2023-03-06T11:16:39.092Z,979.23
2023-03-06T11:18:35.850Z,979.19
2023-03-06T11:19:35.891Z,979.24
2023-03-06T11:20:50.487Z,979.18
2023-03-06T11:21:36.758Z,979.21
2023-03-06T11:22:35.770Z,979.22
2023-03-06T11:23:35.752Z,979.20
2023-03-06T11:24:35.941Z,979.21
2023-03-06T11:25:35.733Z,979.24
2023-03-06T11:26:35.765Z,979.20
2023-03-06T11:27:35.699Z,979.21
2023-03-06T11:28:35.698Z,979.18
2023-03-06T11:29:38.463Z,979.14
2023-03-06T11:30:35.707Z,979.12
2023-03-06T11:31:35.754Z,979.10
2023-03-06T11:32:35.682Z,979.10
2023-03-06T11:33:35.824Z,979.10
2023-03-06T11:34:35.636Z,979.07
2023-03-06T11:35:35.738Z,979.08
2023-03-06T11:36:35.625Z,979.03
2023-03-06T11:37:35.585Z,979.01
2023-03-06T11:38:35.614Z,979.06
2023-03-06T11:39:35.578Z,979.03
2023-03-06T11:40:35.595Z,979.01
2023-03-06T11:41:35.535Z,979.02
2023-03-06T11:42:35.564Z,979.02
2023-03-06T11:43:35.534Z,979.00
2023-03-06T11:44:35.537Z,979.00
2023-03-06T11:45:35.496Z,978.97
2023-03-06T11:46:35.616Z,978.88
2023-03-06T11:47:35.493Z,978.92
2023-03-06T11:48:35.495Z,978.93
2023-03-06T11:49:35.467Z,978.92
2023-03-06T11:50:35.480Z,978.84
2023-03-06T11:51:35.457Z,978.88
2023-03-06T11:52:35.463Z,978.82
2023-03-06T11:53:35.441Z,978.81
2023-03-06T11:54:35.427Z,978.88
2023-03-06T11:55:35.419Z,978.79
2023-03-06T11:56:35.618Z,978.79
2023-03-06T11:57:35.398Z,978.76
2023-03-06T11:58:35.378Z,978.74
2023-03-06T11:59:35.370Z,978.78
2023-03-06T12:00:35.403Z,978.76
2023-03-06T12:01:35.338Z,978.70
2023-03-06T12:02:35.348Z,978.65
2023-03-06T12:03:35.330Z,978.68
2023-03-06T12:04:35.337Z,978.68
2023-03-06T12:05:35.518Z,978.71
2023-03-06T12:06:35.321Z,978.71
2023-03-06T12:07:36.268Z,978.73
2023-03-06T12:08:35.309Z,978.76
2023-03-06T12:09:35.271Z,978.76
2023-03-06T12:10:35.290Z,978.77
2023-03-06T12:11:35.272Z,978.75
2023-03-06T12:12:35.281Z,978.71
2023-03-06T12:13:35.223Z,978.70
2023-03-06T12:14:35.220Z,978.73
2023-03-06T12:15:35.192Z,978.75
2023-03-06T12:16:35.304Z,978.72
2023-03-06T12:17:35.189Z,978.70
2023-03-06T12:18:35.184Z,978.72
2023-03-06T12:19:35.149Z,978.70
2023-03-06T12:20:35.148Z,978.68
2023-03-06T12:21:35.144Z,978.67
2023-03-06T12:22:35.581Z,978.68
2023-03-06T12:23:35.125Z,978.68
2023-03-06T12:24:36.081Z,978.69
2023-03-06T12:25:35.118Z,978.68
2023-03-06T12:26:35.141Z,978.66
2023-03-06T12:27:35.069Z,978.68
2023-03-06T12:28:35.104Z,978.65
2023-03-06T12:29:35.048Z,978.60
2023-03-06T12:30:35.050Z,978.57
2023-03-06T12:31:35.061Z,978.61
2023-03-06T12:32:35.106Z,978.62